sensor_id;sensor_type;location;lat;lon;timestamp;temperature;humidity
4564;DHT22;2294;51.818;8.484;2023-07-29T00:01:30;21.90;99.90
4564;DHT22;2294;51.818;8.484;2023-07-29T00:03:57;22.00;99.90
4564;DHT22;2294;51.818;8.484;2023-07-29T00:06:24;21.90;99.90
4564;DHT22;2294;51.818;8.484;2023-07-29T00:08:52;22.00;99.90
4564;DHT22;2294;51.818;8.484;2023-07-29T00:11:19;22.00;99.90
4564;DHT22;2294;51.818;8.484;2023-07-29T00:13:46;22.00;99.90
4564;DHT22;2294;51.818;8.484;2023-07-29T00:16:15;21.90;99.90
4564;DHT22;2294;51.818;8.484;2023-07-29T00:18:42;22.00;99.90
4564;DHT22;2294;51.818;8.484;2023-07-29T00:21:09;22.10;99.90
4564;DHT22;2294;51.818;8.484;2023-07-29T00:23:36;21.90;99.90
4564;DHT22;2294;51.818;8.484;2023-07-29T00:26:04;21.80;99.90
4564;DHT22;2294;51.818;8.484;2023-07-29T00:28:32;21.90;99.90
4564;DHT22;2294;51.818;8.484;2023-07-29T00:30:59;21.80;99.90
4564;DHT22;2294;51.818;8.484;2023-07-29T00:33:26;21.90;99.90
4564;DHT22;2294;51.818;8.484;2023-07-29T00:35:52;21.90;99.90
4564;DHT22;2294;51.818;8.484;2023-07-29T00:38:19;21.80;99.90
4564;DHT22;2294;51.818;8.484;2023-07-29T00:40:46;22.00;99.90
4564;DHT22;2294;51.818;8.484;2023-07-29T00:43:15;22.00;99.90
4564;DHT22;2294;51.818;8.484;2023-07-29T00:45:43;22.00;99.90
4564;DHT22;2294;51.818;8.484;2023-07-29T00:48:11;22.50;99.90
4564;DHT22;2294;51.818;8.484;2023-07-29T00:50:38;21.90;99.90
4564;DHT22;2294;51.818;8.484;2023-07-29T00:53:05;22.00;99.90
4564;DHT22;2294;51.818;8.484;2023-07-29T00:55:32;21.90;99.90
4564;DHT22;2294;51.818;8.484;2023-07-29T00:58:00;22.10;99.90
4564;DHT22;2294;51.818;8.484;2023-07-29T01:00:28;21.90;99.90
4564;DHT22;2294;51.818;8.484;2023-07-29T01:02:55;22.00;99.90
4564;DHT22;2294;51.818;8.484;2023-07-29T01:05:22;22.00;99.90
4564;DHT22;2294;51.818;8.484;2023-07-29T01:07:56;22.00;99.90
4564;DHT22;2294;51.818;8.484;2023-07-29T01:10:31;22.00;99.90
4564;DHT22;2294;51.818;8.484;2023-07-29T01:13:06;22.10;99.90
4564;DHT22;2294;51.818;8.484;2023-07-29T01:15:43;22.10;99.90
4564;DHT22;2294;51.818;8.484;2023-07-29T01:18:18;22.00;99.90
4564;DHT22;2294;51.818;8.484;2023-07-29T01:20:46;22.10;99.90
4564;DHT22;2294;51.818;8.484;2023-07-29T01:23:14;22.10;99.90
4564;DHT22;2294;51.818;8.484;2023-07-29T01:25:44;22.20;99.90
4564;DHT22;2294;51.818;8.484;2023-07-29T01:28:11;21.60;99.90
4564;DHT22;2294;51.818;8.484;2023-07-29T01:30:39;21.90;99.90
4564;DHT22;2294;51.818;8.484;2023-07-29T01:33:10;22.20;99.90
4564;DHT22;2294;51.818;8.484;2023-07-29T01:35:44;22.20;99.90
4564;DHT22;2294;51.818;8.484;2023-07-29T01:38:16;22.20;99.90
4564;DHT22;2294;51.818;8.484;2023-07-29T01:40:46;22.20;99.90
4564;DHT22;2294;51.818;8.484;2023-07-29T01:43:13;22.10;99.90
4564;DHT22;2294;51.818;8.484;2023-07-29T01:45:40;22.10;99.90
4564;DHT22;2294;51.818;8.484;2023-07-29T01:48:07;22.40;99.90
4564;DHT22;2294;51.818;8.484;2023-07-29T01:50:34;22.40;99.90
4564;DHT22;2294;51.818;8.484;2023-07-29T01:53:01;22.30;99.90
4564;DHT22;2294;51.818;8.484;2023-07-29T01:55:29;22.50;99.90
4564;DHT22;2294;51.818;8.484;2023-07-29T01:57:57;23.10;99.90
4564;DHT22;2294;51.818;8.484;2023-07-29T02:00:24;22.70;99.90
4564;DHT22;2294;51.818;8.484;2023-07-29T02:02:50;22.80;99.90
4564;DHT22;2294;51.818;8.484;2023-07-29T02:05:18;22.70;99.90
4564;DHT22;2294;51.818;8.484;2023-07-29T02:07:44;23.10;99.90
4564;DHT22;2294;51.818;8.484;2023-07-29T02:10:11;22.90;99.90
4564;DHT22;2294;51.818;8.484;2023-07-29T02:12:38;23.00;99.90
4564;DHT22;2294;51.818;8.484;2023-07-29T02:15:08;23.40;99.90
4564;DHT22;2294;51.818;8.484;2023-07-29T02:17:35;23.70;99.90
4564;DHT22;2294;51.818;8.484;2023-07-29T02:20:02;23.40;99.90
4564;DHT22;2294;51.818;8.484;2023-07-29T02:22:30;23.30;99.90
4564;DHT22;2294;51.818;8.484;2023-07-29T02:24:57;23.60;99.90
4564;DHT22;2294;51.818;8.484;2023-07-29T02:27:23;23.70;99.90
4564;DHT22;2294;51.818;8.484;2023-07-29T02:29:52;24.00;99.90
4564;DHT22;2294;51.818;8.484;2023-07-29T02:32:21;23.80;99.90
4564;DHT22;2294;51.818;8.484;2023-07-29T02:34:48;23.80;99.90
4564;DHT22;2294;51.818;8.484;2023-07-29T02:37:15;24.00;99.90
4564;DHT22;2294;51.818;8.484;2023-07-29T02:39:42;24.10;99.90
4564;DHT22;2294;51.818;8.484;2023-07-29T02:42:09;24.30;99.90
4564;DHT22;2294;51.818;8.484;2023-07-29T02:44:36;24.00;99.90
4564;DHT22;2294;51.818;8.484;2023-07-29T02:47:03;24.40;99.90
4564;DHT22;2294;51.818;8.484;2023-07-29T02:49:31;24.10;99.90
4564;DHT22;2294;51.818;8.484;2023-07-29T02:51:58;24.30;99.90
4564;DHT22;2294;51.818;8.484;2023-07-29T02:54:25;24.20;99.90
4564;DHT22;2294;51.818;8.484;2023-07-29T02:56:52;23.90;99.90
4564;DHT22;2294;51.818;8.484;2023-07-29T02:59:19;24.30;99.90
4564;DHT22;2294;51.818;8.484;2023-07-29T03:01:46;24.60;99.90
4564;DHT22;2294;51.818;8.484;2023-07-29T03:04:13;24.70;99.90
4564;DHT22;2294;51.818;8.484;2023-07-29T03:06:41;24.80;99.90
4564;DHT22;2294;51.818;8.484;2023-07-29T03:09:08;24.30;99.90
4564;DHT22;2294;51.818;8.484;2023-07-29T03:11:35;24.60;99.90
4564;DHT22;2294;51.818;8.484;2023-07-29T03:14:02;24.80;99.90
4564;DHT22;2294;51.818;8.484;2023-07-29T03:16:29;24.40;99.90
4564;DHT22;2294;51.818;8.484;2023-07-29T03:18:56;24.50;99.90
4564;DHT22;2294;51.818;8.484;2023-07-29T03:21:23;24.60;99.90
4564;DHT22;2294;51.818;8.484;2023-07-29T03:23:52;24.50;99.90
4564;DHT22;2294;51.818;8.484;2023-07-29T03:26:18;24.60;99.90
4564;DHT22;2294;51.818;8.484;2023-07-29T03:28:45;24.60;99.90
4564;DHT22;2294;51.818;8.484;2023-07-29T03:31:12;24.60;99.90
4564;DHT22;2294;51.818;8.484;2023-07-29T03:33:39;24.60;99.90
4564;DHT22;2294;51.818;8.484;2023-07-29T03:36:06;24.60;99.90
4564;DHT22;2294;51.818;8.484;2023-07-29T03:38:33;24.50;99.90
4564;DHT22;2294;51.818;8.484;2023-07-29T03:41:02;24.90;99.90
4564;DHT22;2294;51.818;8.484;2023-07-29T03:43:29;24.80;99.90
4564;DHT22;2294;51.818;8.484;2023-07-29T03:45:55;24.90;99.90
4564;DHT22;2294;51.818;8.484;2023-07-29T03:48:22;25.00;99.90
4564;DHT22;2294;51.818;8.484;2023-07-29T03:50:49;25.70;99.90
4564;DHT22;2294;51.818;8.484;2023-07-29T03:53:16;25.30;99.90
4564;DHT22;2294;51.818;8.484;2023-07-29T03:55:43;25.20;99.90
4564;DHT22;2294;51.818;8.484;2023-07-29T03:58:12;25.40;99.90
4564;DHT22;2294;51.818;8.484;2023-07-29T04:00:39;25.40;99.90
4564;DHT22;2294;51.818;8.484;2023-07-29T04:03:06;25.50;99.90
4564;DHT22;2294;51.818;8.484;2023-07-29T04:05:33;25.50;99.90
4564;DHT22;2294;51.818;8.484;2023-07-29T04:08:00;25.50;99.90
4564;DHT22;2294;51.818;8.484;2023-07-29T04:10:27;25.50;99.90
4564;DHT22;2294;51.818;8.484;2023-07-29T04:12:53;25.60;99.90
4564;DHT22;2294;51.818;8.484;2023-07-29T04:15:22;25.70;99.90
4564;DHT22;2294;51.818;8.484;2023-07-29T04:17:48;25.70;99.90
4564;DHT22;2294;51.818;8.484;2023-07-29T04:20:15;25.80;99.90
4564;DHT22;2294;51.818;8.484;2023-07-29T04:22:42;25.80;99.90
4564;DHT22;2294;51.818;8.484;2023-07-29T04:25:09;25.80;99.90
4564;DHT22;2294;51.818;8.484;2023-07-29T04:27:36;25.80;99.90
4564;DHT22;2294;51.818;8.484;2023-07-29T04:30:03;25.80;99.90
4564;DHT22;2294;51.818;8.484;2023-07-29T04:32:32;25.80;99.90
4564;DHT22;2294;51.818;8.484;2023-07-29T04:34:58;25.90;99.90
4564;DHT22;2294;51.818;8.484;2023-07-29T04:37:25;26.00;99.90
4564;DHT22;2294;51.818;8.484;2023-07-29T04:39:52;26.20;99.90
4564;DHT22;2294;51.818;8.484;2023-07-29T04:42:19;26.20;99.90
4564;DHT22;2294;51.818;8.484;2023-07-29T04:44:46;26.20;99.90
4564;DHT22;2294;51.818;8.484;2023-07-29T04:47:13;25.90;99.90
4564;DHT22;2294;51.818;8.484;2023-07-29T04:49:41;26.30;99.90
4564;DHT22;2294;51.818;8.484;2023-07-29T04:52:08;26.30;99.90
4564;DHT22;2294;51.818;8.484;2023-07-29T04:54:35;26.40;99.90
4564;DHT22;2294;51.818;8.484;2023-07-29T04:57:02;26.40;99.90
4564;DHT22;2294;51.818;8.484;2023-07-29T04:59:29;26.40;99.90
4564;DHT22;2294;51.818;8.484;2023-07-29T05:01:56;26.30;99.90
4564;DHT22;2294;51.818;8.484;2023-07-29T05:04:23;26.40;99.90
4564;DHT22;2294;51.818;8.484;2023-07-29T05:06:52;26.40;99.90
4564;DHT22;2294;51.818;8.484;2023-07-29T05:09:19;26.30;99.90
4564;DHT22;2294;51.818;8.484;2023-07-29T05:11:46;26.40;99.90
4564;DHT22;2294;51.818;8.484;2023-07-29T05:14:16;26.50;99.90
4564;DHT22;2294;51.818;8.484;2023-07-29T05:16:44;26.50;99.90
4564;DHT22;2294;51.818;8.484;2023-07-29T05:19:11;26.60;99.90
4564;DHT22;2294;51.818;8.484;2023-07-29T05:21:38;26.60;99.90
4564;DHT22;2294;51.818;8.484;2023-07-29T05:24:06;26.70;99.90
4564;DHT22;2294;51.818;8.484;2023-07-29T05:26:33;26.80;99.90
4564;DHT22;2294;51.818;8.484;2023-07-29T05:29:00;26.70;99.90
4564;DHT22;2294;51.818;8.484;2023-07-29T05:31:27;26.70;99.90
4564;DHT22;2294;51.818;8.484;2023-07-29T05:33:54;26.60;99.90
4564;DHT22;2294;51.818;8.484;2023-07-29T05:36:21;26.80;99.90
4564;DHT22;2294;51.818;8.484;2023-07-29T05:38:48;26.70;99.90
4564;DHT22;2294;51.818;8.484;2023-07-29T05:41:16;26.70;99.90
4564;DHT22;2294;51.818;8.484;2023-07-29T05:43:43;26.70;99.90
4564;DHT22;2294;51.818;8.484;2023-07-29T05:46:10;26.70;99.90
4564;DHT22;2294;51.818;8.484;2023-07-29T05:48:37;26.70;99.90
4564;DHT22;2294;51.818;8.484;2023-07-29T05:51:04;26.70;99.90
4564;DHT22;2294;51.818;8.484;2023-07-29T05:53:31;26.70;99.90
4564;DHT22;2294;51.818;8.484;2023-07-29T05:55:58;26.70;99.90
4564;DHT22;2294;51.818;8.484;2023-07-29T05:58:27;26.80;99.90
4564;DHT22;2294;51.818;8.484;2023-07-29T06:00:54;26.70;99.90
4564;DHT22;2294;51.818;8.484;2023-07-29T06:03:20;26.70;99.90
4564;DHT22;2294;51.818;8.484;2023-07-29T06:05:48;26.60;99.90
4564;DHT22;2294;51.818;8.484;2023-07-29T06:08:15;26.60;99.90
4564;DHT22;2294;51.818;8.484;2023-07-29T06:10:42;26.60;99.90
4564;DHT22;2294;51.818;8.484;2023-07-29T06:13:09;26.50;99.90
4564;DHT22;2294;51.818;8.484;2023-07-29T06:15:37;26.50;99.90
4564;DHT22;2294;51.818;8.484;2023-07-29T06:18:04;26.50;99.90
4564;DHT22;2294;51.818;8.484;2023-07-29T06:20:31;26.50;99.90
4564;DHT22;2294;51.818;8.484;2023-07-29T06:22:58;26.30;99.90
4564;DHT22;2294;51.818;8.484;2023-07-29T06:25:25;26.20;99.90
4564;DHT22;2294;51.818;8.484;2023-07-29T06:27:51;26.20;99.90
4564;DHT22;2294;51.818;8.484;2023-07-29T06:30:18;26.20;99.90
4564;DHT22;2294;51.818;8.484;2023-07-29T06:32:46;26.30;99.90
4564;DHT22;2294;51.818;8.484;2023-07-29T06:35:13;26.50;99.90
4564;DHT22;2294;51.818;8.484;2023-07-29T06:37:40;26.70;99.90
4564;DHT22;2294;51.818;8.484;2023-07-29T06:40:08;26.60;99.90
4564;DHT22;2294;51.818;8.484;2023-07-29T06:42:35;26.60;99.90
4564;DHT22;2294;51.818;8.484;2023-07-29T06:45:03;26.50;99.90
4564;DHT22;2294;51.818;8.484;2023-07-29T06:47:30;26.40;99.90
4564;DHT22;2294;51.818;8.484;2023-07-29T06:49:59;26.40;99.90
4564;DHT22;2294;51.818;8.484;2023-07-29T06:52:26;26.50;99.90
4564;DHT22;2294;51.818;8.484;2023-07-29T06:54:53;26.40;99.90
4564;DHT22;2294;51.818;8.484;2023-07-29T06:57:20;26.30;99.90
4564;DHT22;2294;51.818;8.484;2023-07-29T06:59:47;26.00;99.90
4564;DHT22;2294;51.818;8.484;2023-07-29T07:02:14;25.90;99.90
4564;DHT22;2294;51.818;8.484;2023-07-29T07:04:40;25.90;99.90
4564;DHT22;2294;51.818;8.484;2023-07-29T07:07:09;25.80;99.90
4564;DHT22;2294;51.818;8.484;2023-07-29T07:09:36;25.60;99.90
4564;DHT22;2294;51.818;8.484;2023-07-29T07:12:03;25.50;99.90
4564;DHT22;2294;51.818;8.484;2023-07-29T07:14:30;25.60;99.90
4564;DHT22;2294;51.818;8.484;2023-07-29T07:16:57;25.40;99.90
4564;DHT22;2294;51.818;8.484;2023-07-29T07:19:24;25.30;99.90
4564;DHT22;2294;51.818;8.484;2023-07-29T07:21:51;25.40;99.90
4564;DHT22;2294;51.818;8.484;2023-07-29T11:44:45;24.60;99.90
4564;DHT22;2294;51.818;8.484;2023-07-29T11:47:13;23.60;1.00
4564;DHT22;2294;51.818;8.484;2023-07-29T11:49:40;24.10;99.90
4564;DHT22;2294;51.818;8.484;2023-07-29T11:52:08;24.60;99.90
4564;DHT22;2294;51.818;8.484;2023-07-29T11:54:36;24.50;1.00
4564;DHT22;2294;51.818;8.484;2023-07-29T11:57:06;24.60;1.00
4564;DHT22;2294;51.818;8.484;2023-07-29T11:59:34;24.40;99.90
4564;DHT22;2294;51.818;8.484;2023-07-29T12:02:01;24.10;1.00
4564;DHT22;2294;51.818;8.484;2023-07-29T12:04:29;24.00;84.80
4564;DHT22;2294;51.818;8.484;2023-07-29T12:06:56;23.90;1.00
4564;DHT22;2294;51.818;8.484;2023-07-29T12:09:24;24.20;99.90
4564;DHT22;2294;51.818;8.484;2023-07-29T12:11:52;23.70;99.90
4564;DHT22;2294;51.818;8.484;2023-07-29T12:14:20;23.10;99.90
4564;DHT22;2294;51.818;8.484;2023-07-29T12:16:48;23.10;92.60
4564;DHT22;2294;51.818;8.484;2023-07-29T12:19:17;23.50;99.90
4564;DHT22;2294;51.818;8.484;2023-07-29T12:21:44;23.70;1.00
4564;DHT22;2294;51.818;8.484;2023-07-29T12:24:12;24.10;1.00
4564;DHT22;2294;51.818;8.484;2023-07-29T12:26:39;23.70;99.90
4564;DHT22;2294;51.818;8.484;2023-07-29T12:29:12;23.60;99.90
4564;DHT22;2294;51.818;8.484;2023-07-29T12:31:41;23.40;99.90
4564;DHT22;2294;51.818;8.484;2023-07-29T12:34:08;23.40;99.90
4564;DHT22;2294;51.818;8.484;2023-07-29T12:36:42;23.90;1.00
4564;DHT22;2294;51.818;8.484;2023-07-29T12:39:17;24.90;1.00
4564;DHT22;2294;51.818;8.484;2023-07-29T12:41:44;25.50;1.00
4564;DHT22;2294;51.818;8.484;2023-07-29T12:44:11;24.90;99.90
4564;DHT22;2294;51.818;8.484;2023-07-29T12:46:38;25.00;99.90
4564;DHT22;2294;51.818;8.484;2023-07-29T12:49:06;24.90;99.90
4564;DHT22;2294;51.818;8.484;2023-07-29T12:51:33;25.30;99.90
4564;DHT22;2294;51.818;8.484;2023-07-29T12:54:01;24.50;99.90
4564;DHT22;2294;51.818;8.484;2023-07-29T12:56:28;24.90;1.00
4564;DHT22;2294;51.818;8.484;2023-07-29T12:58:56;25.20;1.00
4564;DHT22;2294;51.818;8.484;2023-07-29T13:01:23;25.00;1.00
4564;DHT22;2294;51.818;8.484;2023-07-29T13:03:50;24.50;99.90
4564;DHT22;2294;51.818;8.484;2023-07-29T13:06:18;23.90;1.00
4564;DHT22;2294;51.818;8.484;2023-07-29T13:08:46;23.40;99.90
4564;DHT22;2294;51.818;8.484;2023-07-29T13:11:14;23.10;99.90
4564;DHT22;2294;51.818;8.484;2023-07-29T13:13:41;22.80;99.90
4564;DHT22;2294;51.818;8.484;2023-07-29T13:16:08;23.10;81.40
4564;DHT22;2294;51.818;8.484;2023-07-29T13:18:34;23.40;99.90
4564;DHT22;2294;51.818;8.484;2023-07-29T13:21:01;23.80;1.00
4564;DHT22;2294;51.818;8.484;2023-07-29T13:23:30;23.70;99.90
4564;DHT22;2294;51.818;8.484;2023-07-29T13:25:57;23.90;99.90
4564;DHT22;2294;51.818;8.484;2023-07-29T13:28:24;23.70;26.80
4564;DHT22;2294;51.818;8.484;2023-07-29T13:30:51;23.70;1.00
4564;DHT22;2294;51.818;8.484;2023-07-29T13:33:18;23.50;1.00
4564;DHT22;2294;51.818;8.484;2023-07-29T13:35:45;23.40;31.80
4564;DHT22;2294;51.818;8.484;2023-07-29T13:38:11;23.50;99.90
4564;DHT22;2294;51.818;8.484;2023-07-29T13:40:40;23.00;1.00
4564;DHT22;2294;51.818;8.484;2023-07-29T13:43:06;22.80;99.90
4564;DHT22;2294;51.818;8.484;2023-07-29T13:45:34;22.90;99.90
4564;DHT22;2294;51.818;8.484;2023-07-29T13:48:01;22.70;99.90
4564;DHT22;2294;51.818;8.484;2023-07-29T13:50:28;22.50;99.90
4564;DHT22;2294;51.818;8.484;2023-07-29T13:52:55;22.40;99.90
4564;DHT22;2294;51.818;8.484;2023-07-29T13:55:22;21.60;99.90
4564;DHT22;2294;51.818;8.484;2023-07-29T13:57:50;21.40;99.90
4564;DHT22;2294;51.818;8.484;2023-07-29T14:00:17;21.90;99.90
4564;DHT22;2294;51.818;8.484;2023-07-29T14:02:44;22.00;99.90
4564;DHT22;2294;51.818;8.484;2023-07-29T14:05:11;22.70;99.90
4564;DHT22;2294;51.818;8.484;2023-07-29T14:07:38;23.20;99.90
4564;DHT22;2294;51.818;8.484;2023-07-29T14:10:05;23.60;99.90
4564;DHT22;2294;51.818;8.484;2023-07-29T14:12:34;24.70;99.90
4564;DHT22;2294;51.818;8.484;2023-07-29T14:15:03;27.20;99.90
4564;DHT22;2294;51.818;8.484;2023-07-29T14:19:58;29.00;99.90
4564;DHT22;2294;51.818;8.484;2023-07-29T14:22:25;28.20;99.90
4564;DHT22;2294;51.818;8.484;2023-07-29T14:24:52;28.50;99.90
4564;DHT22;2294;51.818;8.484;2023-07-29T14:27:18;29.40;99.90
4564;DHT22;2294;51.818;8.484;2023-07-29T14:29:45;28.90;72.20
4564;DHT22;2294;51.818;8.484;2023-07-29T14:32:13;28.20;99.90
4564;DHT22;2294;51.818;8.484;2023-07-29T14:34:40;25.60;99.90
4564;DHT22;2294;51.818;8.484;2023-07-29T14:37:07;24.40;99.90
4564;DHT22;2294;51.818;8.484;2023-07-29T14:39:34;24.00;99.90
4564;DHT22;2294;51.818;8.484;2023-07-29T14:42:01;24.30;99.90
4564;DHT22;2294;51.818;8.484;2023-07-29T14:44:28;25.10;99.90
4564;DHT22;2294;51.818;8.484;2023-07-29T14:46:54;24.50;99.90
4564;DHT22;2294;51.818;8.484;2023-07-29T14:49:23;24.00;99.90
4564;DHT22;2294;51.818;8.484;2023-07-29T14:51:50;23.40;99.90
4564;DHT22;2294;51.818;8.484;2023-07-29T14:54:16;23.20;99.90
4564;DHT22;2294;51.818;8.484;2023-07-29T14:56:43;23.10;99.90
4564;DHT22;2294;51.818;8.484;2023-07-29T14:59:10;22.90;99.90
4564;DHT22;2294;51.818;8.484;2023-07-29T15:01:37;22.90;99.90
4564;DHT22;2294;51.818;8.484;2023-07-29T15:04:04;22.80;99.90
4564;DHT22;2294;51.818;8.484;2023-07-29T15:06:32;22.60;99.90
4564;DHT22;2294;51.818;8.484;2023-07-29T15:08:59;22.40;99.90
4564;DHT22;2294;51.818;8.484;2023-07-29T15:11:26;22.50;99.90
4564;DHT22;2294;51.818;8.484;2023-07-29T15:20:38;22.00;99.90
4564;DHT22;2294;51.818;8.484;2023-07-29T15:23:06;22.00;99.90
4564;DHT22;2294;51.818;8.484;2023-07-29T15:25:33;21.90;99.90
4564;DHT22;2294;51.818;8.484;2023-07-29T15:28:00;21.80;99.90
4564;DHT22;2294;51.818;8.484;2023-07-29T15:30:27;21.50;99.90
4564;DHT22;2294;51.818;8.484;2023-07-29T15:32:54;19.60;99.90
4564;DHT22;2294;51.818;8.484;2023-07-29T15:35:22;20.20;99.90
4564;DHT22;2294;51.818;8.484;2023-07-29T15:37:48;21.20;99.90
4564;DHT22;2294;51.818;8.484;2023-07-29T15:40:17;21.70;99.90
4564;DHT22;2294;51.818;8.484;2023-07-29T15:42:44;22.20;99.90
4564;DHT22;2294;51.818;8.484;2023-07-29T15:45:11;22.90;99.90
4564;DHT22;2294;51.818;8.484;2023-07-29T15:47:38;23.20;99.90
4564;DHT22;2294;51.818;8.484;2023-07-29T15:50:06;23.50;99.90
4564;DHT22;2294;51.818;8.484;2023-07-29T15:52:33;24.00;99.90
4564;DHT22;2294;51.818;8.484;2023-07-29T15:55:00;24.00;99.90
4564;DHT22;2294;51.818;8.484;2023-07-29T15:57:28;24.00;99.90
4564;DHT22;2294;51.818;8.484;2023-07-29T15:59:55;24.20;99.90
4564;DHT22;2294;51.818;8.484;2023-07-29T16:02:22;24.40;99.90
4564;DHT22;2294;51.818;8.484;2023-07-29T16:04:49;24.60;99.90
4564;DHT22;2294;51.818;8.484;2023-07-29T16:07:16;24.60;99.90
4564;DHT22;2294;51.818;8.484;2023-07-29T16:09:43;24.60;99.90
4564;DHT22;2294;51.818;8.484;2023-07-29T16:12:09;24.80;99.90
4564;DHT22;2294;51.818;8.484;2023-07-29T16:14:38;24.70;99.90
4564;DHT22;2294;51.818;8.484;2023-07-29T16:17:05;24.30;99.90
4564;DHT22;2294;51.818;8.484;2023-07-29T16:19:32;24.60;99.90
4564;DHT22;2294;51.818;8.484;2023-07-29T16:21:58;24.50;99.90
4564;DHT22;2294;51.818;8.484;2023-07-29T16:24:26;25.50;99.90
4564;DHT22;2294;51.818;8.484;2023-07-29T16:26:53;29.10;99.90
4564;DHT22;2294;51.818;8.484;2023-07-29T16:31:48;29.00;99.90
4564;DHT22;2294;51.818;8.484;2023-07-29T16:34:15;27.70;99.90
4564;DHT22;2294;51.818;8.484;2023-07-29T16:36:42;25.50;99.90
4564;DHT22;2294;51.818;8.484;2023-07-29T19:21:36;21.00;99.90
